createdAt,value
2023-03-02T00:03:32.532Z,15.71
2023-03-02T00:08:35.507Z,15.76
2023-03-02T00:13:38.769Z,15.80
2023-03-02T00:18:40.770Z,15.81
2023-03-02T00:23:43.014Z,15.73
2023-03-02T00:28:44.933Z,15.77
2023-03-02T00:33:46.949Z,15.75
2023-03-02T00:38:49.020Z,15.73
2023-03-02T00:43:54.195Z,15.77
2023-03-02T00:48:56.159Z,15.76
2023-03-02T00:53:58.210Z,15.61
2023-03-02T00:59:05.445Z,15.70
2023-03-02T01:04:07.485Z,15.69
2023-03-02T01:09:09.397Z,15.76
2023-03-02T01:14:11.440Z,15.73
2023-03-02T01:19:14.761Z,15.76
2023-03-02T01:24:16.923Z,15.77
2023-03-02T01:29:19.321Z,15.74
2023-03-02T01:34:21.489Z,15.82
2023-03-02T01:39:23.572Z,15.77
2023-03-02T01:44:43.392Z,15.65
2023-03-02T01:49:51.332Z,15.55
2023-03-02T01:54:55.711Z,15.62
2023-03-02T02:00:02.160Z,15.66
2023-03-02T02:05:04.697Z,15.73
2023-03-02T02:10:08.274Z,15.79
2023-03-02T02:15:10.669Z,15.68
2023-03-02T02:20:28.371Z,15.62
2023-03-02T02:25:48.494Z,15.73
2023-03-02T02:30:57.463Z,15.66
2023-03-02T02:36:05.183Z,15.60
2023-03-02T02:41:13.177Z,15.70
2023-03-02T02:46:15.090Z,15.59
2023-03-02T02:51:27.437Z,15.67
2023-03-02T02:56:35.609Z,15.68
2023-03-02T03:01:38.059Z,15.70
2023-03-02T03:06:50.726Z,15.70
2023-03-02T03:11:57.050Z,15.65
2023-03-02T03:16:59.114Z,15.48
2023-03-02T03:22:02.368Z,15.61
2023-03-02T03:27:05.861Z,15.82
2023-03-02T03:32:08.022Z,15.69
2023-03-02T03:37:12.234Z,15.70
2023-03-02T03:42:14.336Z,15.73
2023-03-02T03:47:16.259Z,15.58
2023-03-02T03:52:18.148Z,15.64
2023-03-02T03:57:20.201Z,15.69
2023-03-02T04:02:22.069Z,15.65
2023-03-02T04:07:24.152Z,15.61
2023-03-02T04:12:26.202Z,15.47
2023-03-02T04:17:28.704Z,15.59
2023-03-02T04:22:30.736Z,15.63
2023-03-02T04:27:32.651Z,15.64
2023-03-02T04:32:34.938Z,15.55
2023-03-02T04:37:36.997Z,15.53
2023-03-02T04:42:38.968Z,15.64
2023-03-02T04:47:41.721Z,15.67
2023-03-02T04:52:43.992Z,15.58
2023-03-02T04:57:46.010Z,15.62
2023-03-02T05:02:48.345Z,15.73
2023-03-02T05:07:50.777Z,15.65
2023-03-02T05:12:58.566Z,15.55
2023-03-02T05:18:00.909Z,15.63
2023-03-02T05:23:05.884Z,15.66
2023-03-02T05:28:07.713Z,15.65
2023-03-02T05:33:10.065Z,15.63
2023-03-02T05:38:12.145Z,15.52
2023-03-02T05:43:19.164Z,15.60
2023-03-02T05:48:21.209Z,15.63
2023-03-02T05:53:23.602Z,15.73
2023-03-02T05:58:25.401Z,15.62
2023-03-02T06:03:27.975Z,15.45
2023-03-02T06:08:30.079Z,15.57
2023-03-02T06:13:31.920Z,15.60
2023-03-02T06:18:35.726Z,15.57
2023-03-02T06:23:38.758Z,15.67
2023-03-02T06:28:57.019Z,15.55
2023-03-02T06:33:58.944Z,15.46
2023-03-02T06:39:00.766Z,15.48
2023-03-02T06:44:04.195Z,15.47
2023-03-02T06:49:12.974Z,15.59
2023-03-02T06:54:15.914Z,15.54
2023-03-02T06:59:17.927Z,15.56
2023-03-02T07:04:20.096Z,15.66
2023-03-02T07:09:22.673Z,15.71
2023-03-02T07:14:24.478Z,15.60
2023-03-02T07:19:26.426Z,15.54
2023-03-02T07:24:28.279Z,15.59
2023-03-02T07:29:30.466Z,15.63
2023-03-02T07:34:32.552Z,15.38
2023-03-02T07:39:34.922Z,15.69
2023-03-02T07:44:36.799Z,15.60
2023-03-02T07:49:39.230Z,15.29
2023-03-02T07:54:42.403Z,15.42
2023-03-02T07:59:48.084Z,15.46
2023-03-02T08:04:50.879Z,15.44
2023-03-02T08:09:52.946Z,15.63
2023-03-02T08:14:55.064Z,15.44
2023-03-02T08:19:57.139Z,15.34
2023-03-02T08:24:59.259Z,15.27
2023-03-02T08:30:01.077Z,15.45
2023-03-02T08:35:03.797Z,15.58
2023-03-02T08:40:06.139Z,15.57
2023-03-02T08:45:08.575Z,15.43
2023-03-02T08:50:11.163Z,15.41
2023-03-02T08:55:14.138Z,15.33
2023-03-02T09:00:16.714Z,15.57
2023-03-02T09:05:18.714Z,15.68
2023-03-02T09:10:20.656Z,15.57
2023-03-02T09:15:22.610Z,15.59
2023-03-02T09:20:24.444Z,15.63
2023-03-02T09:25:26.440Z,15.45
2023-03-02T09:30:28.958Z,15.49
2023-03-02T09:35:31.038Z,15.29
2023-03-02T09:40:37.486Z,15.22
2023-03-02T09:46:05.395Z,15.39
2023-03-02T09:51:31.835Z,15.36
2023-03-02T09:56:38.366Z,15.43
2023-03-02T10:01:47.306Z,15.35
2023-03-02T10:07:02.832Z,15.42
2023-03-02T10:12:13.341Z,15.55
2023-03-02T10:17:54.477Z,15.47
2023-03-02T10:23:23.390Z,15.47
2023-03-02T10:28:34.997Z,15.47
2023-03-02T10:33:39.642Z,15.57
2023-03-02T10:38:42.062Z,15.47
2023-03-02T10:44:00.802Z,15.58
2023-03-02T10:49:02.987Z,15.29
2023-03-02T10:54:07.609Z,15.23
2023-03-02T10:59:34.120Z,15.18
2023-03-02T11:04:36.188Z,15.35
2023-03-02T11:09:38.147Z,15.39
2023-03-02T11:14:40.045Z,15.47
2023-03-02T11:19:43.102Z,15.34
2023-03-02T11:24:56.482Z,15.40
2023-03-02T11:30:04.399Z,15.33
2023-03-02T11:35:29.233Z,15.32
2023-03-02T11:40:47.400Z,15.31
2023-03-02T11:46:10.802Z,15.28
2023-03-02T11:51:24.185Z,15.34
2023-03-02T11:56:29.677Z,15.24
2023-03-02T12:01:33.820Z,15.31
2023-03-02T12:06:39.605Z,15.22
2023-03-02T12:11:41.562Z,15.24
2023-03-02T12:16:46.196Z,15.31
2023-03-02T12:21:57.289Z,15.33
2023-03-02T12:27:07.286Z,15.26
2023-03-02T12:32:23.408Z,15.29
2023-03-02T12:37:32.043Z,15.29
2023-03-02T12:42:54.587Z,15.23
2023-03-02T12:48:05.312Z,15.25
2023-03-02T12:53:17.735Z,15.31
2023-03-02T12:58:25.353Z,15.32
2023-03-02T13:03:29.643Z,15.23
2023-03-02T13:08:32.516Z,15.28
2023-03-02T13:13:52.551Z,15.25
2023-03-02T13:19:11.707Z,15.32
2023-03-02T13:24:33.953Z,15.18
2023-03-02T13:29:36.136Z,15.26
2023-03-02T13:34:38.001Z,15.25
2023-03-02T13:39:39.997Z,15.28
2023-03-02T13:44:41.818Z,15.30
2023-03-02T13:49:43.633Z,15.33
2023-03-02T13:54:47.467Z,15.35
2023-03-02T13:59:49.567Z,15.32
2023-03-02T14:04:51.826Z,15.19
2023-03-02T14:09:54.976Z,15.33
2023-03-02T14:14:59.970Z,15.31
2023-03-02T14:20:02.084Z,15.35
2023-03-02T14:25:05.672Z,15.31
2023-03-02T14:30:19.879Z,15.27
2023-03-02T14:35:25.291Z,15.42
2023-03-02T14:40:30.590Z,15.39
2023-03-02T14:45:32.774Z,15.44
2023-03-02T14:50:38.899Z,15.35
2023-03-02T14:55:42.408Z,15.38
2023-03-02T15:00:45.464Z,15.42
2023-03-02T15:06:00.285Z,15.39
2023-03-02T15:11:03.358Z,15.41
2023-03-02T15:16:05.908Z,15.42
2023-03-02T15:21:12.979Z,15.47
2023-03-02T15:26:15.616Z,15.44
2023-03-02T15:31:17.937Z,15.43
2023-03-02T15:36:25.236Z,15.49
2023-03-02T15:41:27.075Z,15.38
2023-03-02T15:46:29.391Z,15.45
2023-03-02T15:51:31.694Z,15.41
2023-03-02T15:56:43.793Z,15.37
2023-03-02T16:01:46.321Z,15.47
2023-03-02T16:06:48.339Z,15.44
2023-03-02T16:11:51.228Z,15.41
2023-03-02T16:16:53.356Z,15.34
2023-03-02T16:21:55.503Z,15.38
2023-03-02T16:26:57.509Z,15.43
2023-03-02T16:31:59.406Z,15.53
2023-03-02T16:37:01.138Z,15.46
2023-03-02T16:42:03.614Z,15.48
2023-03-02T16:47:05.653Z,15.42
2023-03-02T16:52:07.424Z,15.42
2023-03-02T16:57:09.859Z,15.36
2023-03-02T17:02:12.367Z,15.35
2023-03-02T17:07:14.443Z,15.50
2023-03-02T17:12:16.319Z,15.60
2023-03-02T17:17:21.368Z,15.44
2023-03-02T17:22:23.840Z,15.36
2023-03-02T17:27:27.500Z,15.43
2023-03-02T17:32:29.549Z,15.35
2023-03-02T17:37:31.694Z,15.43
2023-03-02T17:42:33.685Z,15.47
2023-03-02T17:47:36.405Z,15.51
2023-03-02T17:52:38.656Z,15.47
2023-03-02T17:57:41.238Z,15.57
2023-03-02T18:02:43.471Z,15.60
2023-03-02T18:07:45.553Z,15.40
2023-03-02T18:12:48.520Z,15.45
2023-03-02T18:17:50.620Z,15.37
2023-03-02T18:22:52.650Z,15.55
2023-03-02T18:27:54.808Z,15.61
2023-03-02T18:32:57.043Z,15.59
2023-03-02T18:37:59.131Z,15.57
2023-03-02T18:43:01.018Z,15.58
2023-03-02T18:48:03.587Z,15.59
2023-03-02T18:53:05.687Z,15.61
2023-03-02T18:58:09.027Z,15.63
2023-03-02T19:03:11.072Z,15.58
2023-03-02T19:08:14.852Z,15.59
2023-03-02T19:13:17.393Z,15.53
2023-03-02T19:18:21.684Z,15.65
2023-03-02T19:23:23.846Z,15.64
2023-03-02T19:28:27.756Z,15.51
2023-03-02T19:33:29.637Z,15.50
2023-03-02T19:38:31.696Z,15.52
2023-03-02T19:43:33.646Z,15.52
2023-03-02T19:48:35.926Z,15.57
2023-03-02T19:53:39.316Z,15.53
2023-03-02T19:58:47.931Z,15.45
2023-03-02T20:03:52.296Z,15.44
2023-03-02T20:08:54.524Z,15.48
2023-03-02T20:13:57.899Z,15.57
2023-03-02T20:19:02.385Z,15.45
2023-03-02T20:24:05.588Z,15.48
2023-03-02T20:29:12.814Z,15.40
2023-03-02T20:34:18.012Z,15.43
2023-03-02T20:39:26.819Z,15.43
2023-03-02T20:44:31.645Z,15.35
2023-03-02T20:49:33.841Z,15.35
2023-03-02T20:54:40.380Z,15.49
2023-03-02T20:59:45.225Z,15.45
2023-03-02T21:04:47.815Z,15.39
2023-03-02T21:09:49.707Z,15.49
2023-03-02T21:14:51.640Z,15.63
2023-03-02T21:19:53.490Z,15.67
2023-03-02T21:24:55.414Z,15.68
2023-03-02T21:29:57.496Z,15.68
2023-03-02T21:34:59.644Z,15.68
2023-03-02T21:40:01.747Z,15.71
2023-03-02T21:45:04.430Z,15.52
2023-03-02T21:50:07.234Z,15.74
2023-03-02T21:55:09.844Z,15.53
2023-03-02T22:00:22.265Z,15.67
2023-03-02T22:05:24.131Z,15.79
2023-03-02T22:10:41.559Z,15.86
2023-03-02T22:15:47.885Z,15.87
2023-03-02T22:20:51.333Z,15.94
2023-03-02T22:25:56.023Z,15.81
2023-03-02T22:31:00.549Z,15.85
2023-03-02T22:36:13.995Z,15.92
2023-03-02T22:41:20.556Z,15.87
2023-03-02T22:46:23.083Z,15.89
2023-03-02T22:51:29.882Z,15.90
2023-03-02T22:56:38.530Z,15.98
2023-03-02T23:01:43.130Z,15.96
2023-03-02T23:06:55.332Z,15.96
2023-03-02T23:12:01.682Z,16.04
2023-03-02T23:17:13.633Z,15.92
2023-03-02T23:22:15.587Z,15.83
2023-03-02T23:27:17.672Z,16.00
2023-03-02T23:32:19.870Z,16.08
2023-03-02T23:37:21.904Z,15.90
2023-03-02T23:42:23.987Z,15.99
2023-03-02T23:47:25.975Z,15.92
2023-03-02T23:52:28.016Z,16.10
2023-03-02T23:57:30.001Z,16.06
